createdAt,value
2019-03-24T00:00:48.952Z,13.70
2019-03-24T00:03:20.237Z,14.87
2019-03-24T00:05:53.089Z,14.00
2019-03-24T00:08:28.102Z,13.63
2019-03-24T00:10:58.767Z,13.93
2019-03-24T00:13:29.481Z,14.37
2019-03-24T00:16:00.459Z,13.90
2019-03-24T00:18:36.833Z,15.07
2019-03-24T00:21:05.052Z,13.33
2019-03-24T00:23:38.300Z,12.97
2019-03-24T00:26:15.176Z,13.63
2019-03-24T00:28:53.189Z,14.50
2019-03-24T00:31:20.185Z,13.97
2019-03-24T00:33:51.453Z,14.17
2019-03-24T00:36:22.014Z,13.63
2019-03-24T00:38:52.720Z,14.87
2019-03-24T00:41:23.825Z,15.40
2019-03-24T00:43:54.860Z,15.53
2019-03-24T00:46:25.336Z,15.70
2019-03-24T00:48:58.583Z,18.80
2019-03-24T00:51:29.026Z,17.17
2019-03-24T00:53:59.973Z,17.67
2019-03-24T00:56:30.790Z,17.47
2019-03-24T00:59:03.054Z,18.20
2019-03-24T01:01:33.654Z,18.77
2019-03-24T01:04:04.213Z,18.10
2019-03-24T01:06:34.792Z,16.00
2019-03-24T01:09:13.450Z,15.33
2019-03-24T01:11:44.040Z,15.20
2019-03-24T01:14:17.369Z,16.10
2019-03-24T01:16:47.797Z,15.53
2019-03-24T01:19:18.304Z,15.70
2019-03-24T01:21:49.000Z,15.63
2019-03-24T01:24:20.665Z,14.93
2019-03-24T01:26:52.581Z,13.93
2019-03-24T01:29:24.080Z,14.73
2019-03-24T01:31:54.710Z,14.27
2019-03-24T01:34:26.129Z,14.53
2019-03-24T01:36:59.742Z,13.47
2019-03-24T01:39:33.894Z,14.77
2019-03-24T01:42:06.020Z,12.70
2019-03-24T01:44:39.515Z,12.50
2019-03-24T01:47:13.797Z,13.27
2019-03-24T01:49:47.628Z,14.00
2019-03-24T01:52:22.868Z,15.70
2019-03-24T01:54:53.378Z,13.60
2019-03-24T01:57:27.972Z,13.23
2019-03-24T01:59:58.727Z,12.83
2019-03-24T02:02:31.743Z,13.53
2019-03-24T02:05:02.049Z,12.37
2019-03-24T02:07:32.540Z,12.97
2019-03-24T02:10:04.310Z,12.70
2019-03-24T02:12:34.952Z,13.07
2019-03-24T02:15:14.537Z,12.10
2019-03-24T02:17:45.123Z,12.27
2019-03-24T02:20:16.314Z,13.23
2019-03-24T02:22:47.248Z,13.30
2019-03-24T02:25:19.305Z,13.00
2019-03-24T02:27:49.898Z,13.20
2019-03-24T02:30:21.496Z,12.03
2019-03-24T02:32:51.982Z,12.30
2019-03-24T02:35:22.486Z,11.87
2019-03-24T02:37:52.989Z,12.10
2019-03-24T02:40:25.471Z,11.47
2019-03-24T02:42:56.133Z,11.63
2019-03-24T02:45:26.755Z,11.63
2019-03-24T02:47:59.754Z,10.83
2019-03-24T02:50:30.219Z,11.10
2019-03-24T02:53:00.714Z,11.47
2019-03-24T02:55:31.145Z,11.03
2019-03-24T02:58:01.758Z,11.20
2019-03-24T03:00:32.391Z,11.30
2019-03-24T03:03:03.363Z,11.03
2019-03-24T03:05:33.824Z,11.70
2019-03-24T03:08:04.388Z,12.03
2019-03-24T03:10:34.874Z,11.17
2019-03-24T03:13:05.932Z,11.70
2019-03-24T03:15:36.546Z,11.83
2019-03-24T03:18:07.127Z,11.20
2019-03-24T03:20:38.077Z,11.97
2019-03-24T03:23:09.043Z,11.27
2019-03-24T03:25:43.499Z,11.17
2019-03-24T03:28:14.692Z,11.23
2019-03-24T03:30:46.122Z,11.03
2019-03-24T03:33:17.050Z,11.90
2019-03-24T03:35:47.615Z,11.77
2019-03-24T03:38:18.128Z,11.17
2019-03-24T03:40:49.077Z,12.70
2019-03-24T03:43:21.609Z,13.03
2019-03-24T03:45:52.077Z,10.77
2019-03-24T03:48:24.073Z,11.50
2019-03-24T03:50:54.713Z,12.13
2019-03-24T03:53:25.209Z,12.07
2019-03-24T03:55:56.191Z,12.43
2019-03-24T03:58:28.117Z,12.00
2019-03-24T04:00:58.648Z,12.53
2019-03-24T04:03:29.301Z,11.63
2019-03-24T04:05:59.871Z,11.93
2019-03-24T04:08:33.965Z,13.50
2019-03-24T04:11:05.027Z,11.47
2019-03-24T04:13:35.519Z,11.73
2019-03-24T04:16:08.174Z,12.07
2019-03-24T04:18:38.715Z,10.57
2019-03-24T04:21:09.809Z,11.23
2019-03-24T04:23:41.772Z,10.67
2019-03-24T04:26:12.255Z,10.97
2019-03-24T04:28:44.546Z,11.00
2019-03-24T04:31:16.007Z,10.10
2019-03-24T04:33:46.407Z,9.80
2019-03-24T04:36:17.428Z,10.50
2019-03-24T04:38:48.766Z,10.57
2019-03-24T04:41:19.868Z,10.63
2019-03-24T04:43:50.428Z,10.43
2019-03-24T04:46:22.052Z,10.50
2019-03-24T04:48:52.637Z,10.37
2019-03-24T04:51:27.015Z,11.20
2019-03-24T04:54:01.150Z,11.00
2019-03-24T04:56:34.316Z,10.77
2019-03-24T04:59:04.989Z,10.43
2019-03-24T05:01:35.931Z,10.30
2019-03-24T05:04:06.601Z,10.20
2019-03-24T05:06:38.899Z,11.23
2019-03-24T05:09:09.943Z,10.93
2019-03-24T05:11:40.523Z,10.70
2019-03-24T05:14:11.994Z,11.13
2019-03-24T05:16:44.684Z,10.53
2019-03-24T05:19:15.851Z,11.03
2019-03-24T05:21:46.564Z,10.87
2019-03-24T05:24:17.202Z,11.57
2019-03-24T05:26:48.153Z,11.23
2019-03-24T05:29:18.757Z,10.77
2019-03-24T05:41:05.744Z,12.37
2019-03-24T05:43:36.288Z,12.10
2019-03-24T05:46:10.415Z,12.53
2019-03-24T05:48:41.384Z,13.00
2019-03-24T05:51:11.949Z,12.90
2019-03-24T05:53:43.208Z,12.93
2019-03-24T05:56:14.143Z,13.00
2019-03-24T05:58:44.777Z,11.73
2019-03-24T06:01:17.949Z,13.00
2019-03-24T06:03:47.599Z,12.60
2019-03-24T06:06:18.010Z,13.10
2019-03-24T06:08:48.470Z,12.60
2019-03-24T06:11:18.955Z,12.63
2019-03-24T06:13:49.528Z,15.13
2019-03-24T06:16:20.030Z,15.03
2019-03-24T06:18:50.552Z,16.77
2019-03-24T06:21:21.203Z,16.27
2019-03-24T06:23:51.678Z,15.40
2019-03-24T06:26:22.088Z,14.63
2019-03-24T06:28:52.457Z,15.33
2019-03-24T06:31:23.012Z,17.80
2019-03-24T06:33:53.538Z,17.53
2019-03-24T06:36:23.948Z,19.60
2019-03-24T06:38:55.156Z,22.80
2019-03-24T06:41:26.488Z,22.87
2019-03-24T06:43:56.973Z,23.03
2019-03-24T06:46:27.518Z,22.40
2019-03-24T06:48:58.824Z,24.10
2019-03-24T06:51:29.225Z,25.43
2019-03-24T06:53:59.694Z,26.83
2019-03-24T06:56:30.189Z,28.60
2019-03-24T06:59:00.679Z,30.20
2019-03-24T07:01:31.114Z,29.00
2019-03-24T07:04:03.794Z,26.77
2019-03-24T07:06:34.863Z,27.03
2019-03-24T07:09:07.304Z,30.00
2019-03-24T07:11:38.056Z,29.67
2019-03-24T07:14:08.718Z,29.87
2019-03-24T07:16:39.213Z,31.47
2019-03-24T07:19:09.777Z,29.20
2019-03-24T07:21:40.230Z,28.73
2019-03-24T07:24:10.757Z,29.17
2019-03-24T07:26:41.308Z,29.27
2019-03-24T07:29:11.760Z,27.47
2019-03-24T07:31:43.242Z,28.70
2019-03-24T07:34:13.745Z,29.33
2019-03-24T07:36:44.139Z,27.07
2019-03-24T07:39:14.531Z,27.13
2019-03-24T07:41:45.959Z,25.07
2019-03-24T07:44:21.999Z,27.87
2019-03-24T07:46:52.489Z,25.27
2019-03-24T07:49:22.939Z,27.67
2019-03-24T07:51:53.505Z,27.13
2019-03-24T07:54:23.932Z,27.77
2019-03-24T07:56:54.304Z,27.27
2019-03-24T07:59:24.789Z,27.67
2019-03-24T08:01:55.163Z,26.97
2019-03-24T08:04:25.743Z,27.90
2019-03-24T08:06:56.268Z,27.37
2019-03-24T08:09:27.056Z,27.93
2019-03-24T08:11:57.609Z,28.60
2019-03-24T08:14:28.045Z,27.60
2019-03-24T08:16:58.528Z,26.00
2019-03-24T08:19:29.354Z,27.53
2019-03-24T08:21:59.890Z,26.43
2019-03-24T08:24:31.360Z,25.97
2019-03-24T08:27:01.985Z,25.60
2019-03-24T08:29:33.445Z,26.67
2019-03-24T08:32:04.484Z,26.40
2019-03-24T08:34:35.095Z,27.10
2019-03-24T08:37:05.715Z,26.80
2019-03-24T08:39:36.221Z,25.57
2019-03-24T08:42:07.629Z,25.87
2019-03-24T08:44:38.728Z,26.00
2019-03-24T08:47:09.194Z,24.97
2019-03-24T08:49:39.692Z,25.10
2019-03-24T08:52:10.218Z,25.47
2019-03-24T08:54:40.741Z,23.83
2019-03-24T08:57:11.474Z,25.20
2019-03-24T08:59:45.838Z,24.43
2019-03-24T09:02:18.058Z,23.87
2019-03-24T09:04:48.479Z,22.40
2019-03-24T09:07:19.072Z,25.10
2019-03-24T09:09:49.577Z,23.23
2019-03-24T09:12:20.642Z,22.70
2019-03-24T09:14:55.321Z,23.50
2019-03-24T09:17:25.762Z,23.10
2019-03-24T09:19:56.321Z,22.50
2019-03-24T09:22:26.902Z,22.83
2019-03-24T09:24:57.456Z,22.83
2019-03-24T09:27:27.851Z,22.93
2019-03-24T09:29:58.407Z,21.17
2019-03-24T09:32:28.822Z,21.20
2019-03-24T09:34:59.285Z,21.17
2019-03-24T09:37:29.782Z,20.10
2019-03-24T09:40:00.381Z,20.77
2019-03-24T09:42:31.870Z,19.80
2019-03-24T09:45:02.357Z,21.77
2019-03-24T09:47:32.934Z,21.07
2019-03-24T09:50:03.905Z,21.43
2019-03-24T09:52:34.631Z,22.00
2019-03-24T09:55:07.748Z,21.10
2019-03-24T09:57:38.282Z,21.93
2019-03-24T10:00:10.075Z,21.33
2019-03-24T10:02:40.706Z,21.87
2019-03-24T10:05:11.320Z,20.93
2019-03-24T10:07:42.002Z,21.63
2019-03-24T10:10:12.664Z,19.13
2019-03-24T10:12:43.153Z,19.00
2019-03-24T10:15:13.816Z,20.80
2019-03-24T10:17:44.896Z,20.23
2019-03-24T10:20:15.829Z,20.13
2019-03-24T10:22:46.469Z,19.57
2019-03-24T10:25:16.857Z,18.50
2019-03-24T10:27:47.347Z,17.80
2019-03-24T10:30:18.439Z,17.47
2019-03-24T10:32:49.948Z,17.23
2019-03-24T10:35:20.470Z,15.07
2019-03-24T10:37:51.066Z,14.57
2019-03-24T10:40:28.702Z,14.80
2019-03-24T10:42:56.982Z,15.40
2019-03-24T10:45:27.672Z,12.60
2019-03-24T10:47:58.466Z,11.47
2019-03-24T10:50:28.988Z,9.70
2019-03-24T10:52:59.625Z,8.97
2019-03-24T10:55:30.953Z,9.40
2019-03-24T10:58:01.376Z,10.33
2019-03-24T11:00:41.436Z,10.90
2019-03-24T11:03:12.256Z,9.33
2019-03-24T11:05:43.640Z,10.60
2019-03-24T11:08:14.228Z,9.13
2019-03-24T11:10:44.935Z,10.07
2019-03-24T11:13:15.540Z,9.73
2019-03-24T11:15:46.314Z,9.00
2019-03-24T11:18:16.809Z,9.60
2019-03-24T11:20:47.311Z,9.20
2019-03-24T11:23:18.116Z,9.03
2019-03-24T11:25:48.697Z,8.40
2019-03-24T11:28:19.402Z,8.10
2019-03-24T11:30:49.867Z,6.30
2019-03-24T11:33:22.068Z,6.33
2019-03-24T11:35:52.638Z,7.73
2019-03-24T11:38:23.217Z,7.93
2019-03-24T11:40:53.776Z,7.27
2019-03-24T11:43:25.216Z,8.13
2019-03-24T11:45:55.696Z,8.33
2019-03-24T11:48:26.226Z,8.90
2019-03-24T11:50:56.728Z,7.60
2019-03-24T11:53:27.188Z,10.53
2019-03-24T11:55:57.627Z,10.77
2019-03-24T11:58:30.029Z,11.10
2019-03-24T12:01:00.802Z,10.47
2019-03-24T12:03:32.060Z,10.70
2019-03-24T12:06:13.638Z,10.37
2019-03-24T12:08:34.792Z,11.43
2019-03-24T12:11:05.987Z,11.70
2019-03-24T12:13:36.547Z,10.60
2019-03-24T12:16:07.196Z,10.00
2019-03-24T12:18:37.818Z,10.03
2019-03-24T12:21:08.470Z,9.40
2019-03-24T12:23:38.914Z,9.47
2019-03-24T12:26:09.432Z,10.33
2019-03-24T12:28:40.302Z,10.07
2019-03-24T12:31:10.910Z,10.30
2019-03-24T12:33:41.583Z,10.57
2019-03-24T12:36:12.078Z,10.57
2019-03-24T12:38:43.536Z,10.30
2019-03-24T12:41:14.035Z,10.03
2019-03-24T12:43:45.390Z,9.80
2019-03-24T12:46:15.920Z,10.10
2019-03-24T12:48:46.357Z,9.70
2019-03-24T12:51:17.516Z,10.37
2019-03-24T12:53:48.157Z,10.03
2019-03-24T12:56:19.704Z,10.27
2019-03-24T12:58:50.131Z,10.07
2019-03-24T13:01:21.011Z,10.60
2019-03-24T13:03:51.688Z,9.13
2019-03-24T13:06:23.903Z,10.07
2019-03-24T13:08:54.440Z,9.37
2019-03-24T13:11:24.954Z,9.60
2019-03-24T13:13:55.489Z,9.63
2019-03-24T13:16:25.987Z,9.73
2019-03-24T13:18:57.452Z,8.73
2019-03-24T13:21:27.976Z,10.13
2019-03-24T13:23:58.437Z,9.10
2019-03-24T13:26:30.343Z,9.77
2019-03-24T13:29:01.398Z,9.23
2019-03-24T13:31:31.978Z,9.90
2019-03-24T13:34:03.047Z,12.30
2019-03-24T13:36:33.645Z,9.90
2019-03-24T13:39:05.980Z,11.13
2019-03-24T13:41:36.381Z,10.17
2019-03-24T13:44:07.726Z,10.27
2019-03-24T13:49:14.765Z,9.63
2019-03-24T13:51:45.244Z,9.60
2019-03-24T13:54:15.808Z,9.63
2019-03-24T13:56:46.350Z,10.23
2019-03-24T13:59:16.895Z,9.57
2019-03-24T14:01:47.500Z,9.87
2019-03-24T14:04:17.970Z,10.43
2019-03-24T14:06:48.595Z,9.83
2019-03-24T14:09:20.964Z,10.00
2019-03-24T14:11:51.453Z,10.23
2019-03-24T14:14:22.157Z,11.13
2019-03-24T14:16:52.676Z,11.60
2019-03-24T14:19:23.378Z,11.43
2019-03-24T14:21:54.349Z,10.60
2019-03-24T14:24:25.365Z,10.87
2019-03-24T14:26:55.859Z,11.57
2019-03-24T14:29:27.259Z,11.53
2019-03-24T14:31:57.861Z,11.03
2019-03-24T14:34:29.105Z,10.93
2019-03-24T14:36:59.738Z,10.97
2019-03-24T14:39:30.250Z,10.47
2019-03-24T14:42:07.017Z,10.60
2019-03-24T14:44:38.348Z,10.37
2019-03-24T14:47:09.902Z,10.83
2019-03-24T14:49:40.621Z,10.30
2019-03-24T14:52:13.032Z,10.77
2019-03-24T14:54:46.412Z,11.33
2019-03-24T14:57:17.328Z,10.37
2019-03-24T14:59:48.012Z,10.80
2019-03-24T15:02:18.405Z,11.10
2019-03-24T15:04:48.918Z,11.90
2019-03-24T15:07:19.403Z,10.70
2019-03-24T15:09:50.008Z,10.80
2019-03-24T15:12:20.415Z,11.73
2019-03-24T15:14:51.658Z,12.93
2019-03-24T15:17:22.252Z,11.33
2019-03-24T15:19:54.620Z,11.70
2019-03-24T15:22:25.118Z,11.43
2019-03-24T15:24:55.551Z,12.00
2019-03-24T15:27:26.067Z,11.00
2019-03-24T15:29:56.658Z,12.17
2019-03-24T15:32:27.148Z,11.60
2019-03-24T15:34:58.483Z,11.50
2019-03-24T15:37:28.913Z,12.20
2019-03-24T15:39:59.380Z,11.47
2019-03-24T15:42:29.951Z,11.90
2019-03-24T15:45:01.268Z,13.40
2019-03-24T15:47:31.921Z,12.60
2019-03-24T15:50:02.418Z,11.37
2019-03-24T15:52:37.110Z,11.37
2019-03-24T15:55:09.031Z,11.13
2019-03-24T15:57:39.752Z,12.07
2019-03-24T16:00:11.732Z,12.30
2019-03-24T16:02:42.744Z,12.27
2019-03-24T16:05:14.282Z,11.60
2019-03-24T16:07:44.847Z,12.40
2019-03-24T16:10:15.467Z,13.70
2019-03-24T16:12:45.956Z,14.00
2019-03-24T16:15:16.501Z,12.63
2019-03-24T16:17:46.910Z,12.93
2019-03-24T16:20:17.371Z,12.87
2019-03-24T16:22:48.796Z,12.03
2019-03-24T16:25:19.319Z,15.83
2019-03-24T16:27:50.208Z,12.90
2019-03-24T16:30:23.238Z,12.03
2019-03-24T16:32:54.220Z,12.40
2019-03-24T16:35:24.799Z,11.20
2019-03-24T16:37:55.300Z,12.07
2019-03-24T16:40:25.868Z,11.50
2019-03-24T16:42:56.566Z,12.10
2019-03-24T16:45:28.352Z,12.03
2019-03-24T16:47:59.003Z,12.90
2019-03-24T16:50:30.635Z,12.63
2019-03-24T16:53:01.791Z,12.67
2019-03-24T16:55:32.634Z,14.03
2019-03-24T16:58:03.189Z,12.83
2019-03-24T17:00:34.197Z,14.03
2019-03-24T17:03:05.005Z,14.50
2019-03-24T17:05:35.682Z,15.13
2019-03-24T17:08:06.767Z,15.00
2019-03-24T17:10:38.062Z,13.53
2019-03-24T17:13:08.704Z,14.70
2019-03-24T17:15:46.231Z,14.13
2019-03-24T17:18:16.794Z,14.23
2019-03-24T17:20:49.036Z,14.53
2019-03-24T17:23:19.569Z,14.37
2019-03-24T17:25:53.409Z,16.17
2019-03-24T17:28:23.872Z,14.67
2019-03-24T17:30:54.488Z,16.70
2019-03-24T17:33:25.013Z,16.53
2019-03-24T17:35:55.687Z,16.37
2019-03-24T17:38:26.302Z,16.73
2019-03-24T17:40:56.870Z,17.00
2019-03-24T17:43:27.391Z,17.10
2019-03-24T17:45:58.738Z,16.73
2019-03-24T17:48:29.154Z,16.50
2019-03-24T17:50:59.729Z,16.27
2019-03-24T17:53:30.262Z,18.50
2019-03-24T17:56:00.798Z,17.20
2019-03-24T17:58:31.407Z,18.90
2019-03-24T18:01:03.021Z,17.37
2019-03-24T18:03:37.641Z,18.53
2019-03-24T18:06:09.155Z,16.50
2019-03-24T18:08:39.604Z,15.83
2019-03-24T18:11:10.182Z,17.80
2019-03-24T18:13:40.819Z,15.67
2019-03-24T18:16:11.398Z,16.23
2019-03-24T18:18:41.991Z,15.97
2019-03-24T18:21:13.463Z,16.77
2019-03-24T18:23:43.857Z,16.17
2019-03-24T18:26:14.374Z,15.93
2019-03-24T18:28:44.863Z,16.37
2019-03-24T18:31:15.560Z,15.13
2019-03-24T18:33:47.060Z,14.47
2019-03-24T18:36:17.654Z,15.93
2019-03-24T18:38:48.204Z,15.90
2019-03-24T18:41:19.277Z,15.63
2019-03-24T18:43:49.928Z,17.83
2019-03-24T18:46:22.416Z,15.87
2019-03-24T18:48:53.026Z,21.93
2019-03-24T18:51:23.522Z,16.87
2019-03-24T18:53:54.013Z,16.83
2019-03-24T18:56:24.532Z,16.60
2019-03-24T18:58:55.148Z,15.27
2019-03-24T19:01:25.743Z,16.30
2019-03-24T19:03:56.241Z,16.60
2019-03-24T19:06:26.805Z,16.80
2019-03-24T19:08:58.411Z,18.43
2019-03-24T19:11:29.085Z,19.23
2019-03-24T19:13:59.498Z,19.10
2019-03-24T19:16:30.547Z,18.87
2019-03-24T19:19:00.970Z,18.40
2019-03-24T19:21:31.501Z,18.67
2019-03-24T19:24:02.660Z,20.83
2019-03-24T19:26:33.214Z,20.70
2019-03-24T19:29:06.818Z,19.50
2019-03-24T19:31:38.342Z,19.43
2019-03-24T19:34:08.923Z,21.83
2019-03-24T19:36:40.518Z,20.23
2019-03-24T19:39:11.422Z,20.53
2019-03-24T19:41:41.902Z,20.20
2019-03-24T19:44:16.101Z,19.47
2019-03-24T19:46:47.702Z,18.90
2019-03-24T19:49:18.188Z,17.93
2019-03-24T19:51:48.662Z,21.40
2019-03-24T19:54:19.150Z,21.73
2019-03-24T19:56:51.613Z,23.30
2019-03-24T19:59:22.326Z,24.67
2019-03-24T20:01:53.337Z,21.33
2019-03-24T20:04:23.824Z,20.83
2019-03-24T20:06:57.413Z,19.30
2019-03-24T20:09:27.901Z,18.33
2019-03-24T20:11:58.383Z,19.80
2019-03-24T20:14:28.860Z,21.40
2019-03-24T20:17:01.136Z,20.43
2019-03-24T20:19:31.628Z,18.63
2019-03-24T20:22:02.148Z,20.53
2019-03-24T20:24:32.527Z,20.90
2019-03-24T20:27:03.947Z,20.13
2019-03-24T20:29:34.326Z,20.23
2019-03-24T20:32:04.872Z,18.83
2019-03-24T20:34:35.288Z,21.37
2019-03-24T20:37:05.918Z,22.67
2019-03-24T20:39:36.609Z,18.23
2019-03-24T20:42:07.426Z,18.43
2019-03-24T20:44:37.873Z,16.23
2019-03-24T20:47:09.273Z,18.40
2019-03-24T20:49:40.149Z,19.47
2019-03-24T20:52:11.648Z,20.40
2019-03-24T20:54:42.144Z,25.03
2019-03-24T20:57:12.615Z,24.67
2019-03-24T20:59:44.334Z,24.83
2019-03-24T21:02:14.911Z,22.87
2019-03-24T21:04:45.333Z,24.37
2019-03-24T21:07:15.961Z,23.00
2019-03-24T21:09:46.672Z,24.43
2019-03-24T21:12:17.434Z,23.93
2019-03-24T21:14:48.059Z,23.87
2019-03-24T21:17:18.626Z,24.23
2019-03-24T21:19:49.189Z,23.57
2019-03-24T21:22:20.525Z,23.33
2019-03-24T21:24:51.081Z,23.93
2019-03-24T21:27:21.550Z,21.77
2019-03-24T21:29:51.964Z,22.50
2019-03-24T21:32:22.360Z,22.47
2019-03-24T21:34:54.194Z,21.97
2019-03-24T21:37:25.624Z,24.10
2019-03-24T21:39:56.033Z,23.50
2019-03-24T21:42:26.500Z,22.53
2019-03-24T21:44:56.891Z,25.67
2019-03-24T21:47:28.648Z,24.60
2019-03-24T21:49:59.104Z,24.37
2019-03-24T21:52:29.774Z,23.70
2019-03-24T21:55:00.245Z,24.13
2019-03-24T21:57:30.754Z,23.33
2019-03-24T22:00:01.301Z,22.33
2019-03-24T22:02:31.945Z,24.03
2019-03-24T22:05:02.395Z,23.37
2019-03-24T22:07:32.952Z,22.30
2019-03-24T22:10:04.285Z,23.67
2019-03-24T22:12:34.687Z,23.43
2019-03-24T22:15:08.279Z,24.13
2019-03-24T22:17:40.963Z,21.23
2019-03-24T22:20:13.921Z,22.37
2019-03-24T22:22:44.439Z,21.60
2019-03-24T22:25:14.881Z,21.80
2019-03-24T22:27:45.364Z,21.50
2019-03-24T22:30:17.461Z,22.40
2019-03-24T22:32:47.961Z,22.30
2019-03-24T22:35:18.448Z,23.27
2019-03-24T22:37:48.982Z,21.67
2019-03-24T22:40:19.431Z,22.80
2019-03-24T22:42:49.835Z,22.63
2019-03-24T22:45:21.408Z,22.43
2019-03-24T22:47:53.287Z,23.27
2019-03-24T22:50:24.882Z,23.27
2019-03-24T22:52:55.374Z,23.37
2019-03-24T22:55:25.891Z,22.60
2019-03-24T22:57:56.482Z,22.30
2019-03-24T23:00:28.747Z,23.17
2019-03-24T23:02:59.399Z,23.00
2019-03-24T23:05:29.933Z,22.43
2019-03-24T23:08:00.584Z,23.07
2019-03-24T23:10:31.178Z,22.50
2019-03-24T23:13:01.771Z,24.33
2019-03-24T23:15:32.184Z,24.13
2019-03-24T23:18:02.728Z,22.10
2019-03-24T23:20:33.288Z,23.47
2019-03-24T23:23:03.846Z,24.63
2019-03-24T23:25:34.374Z,24.50
2019-03-24T23:28:05.150Z,25.27
2019-03-24T23:30:35.513Z,24.17
2019-03-24T23:33:06.140Z,24.13
2019-03-24T23:35:36.846Z,24.47
2019-03-24T23:38:07.350Z,25.07
2019-03-24T23:40:37.902Z,26.97
2019-03-24T23:43:10.821Z,26.40
2019-03-24T23:45:41.301Z,25.90
2019-03-24T23:48:12.587Z,25.87
2019-03-24T23:50:43.130Z,26.20
2019-03-24T23:53:13.760Z,25.30
2019-03-24T23:55:44.379Z,25.50
2019-03-24T23:58:14.948Z,26.00
